Schedule Details


Flight Number: CTN631
Departure: Zemunik (LDZD) at 06:55
Arrival: Franjo Tudman (LDZA) at 07:35
Route: ALANU L868 KULEN M986 KOTOR

Weather Information
LDZD 220330Z 10003KT 050V160 CAVOK 08/07 Q1018 NOSIG
LDZA 220330Z 23005KT CAVOK 05/03 Q1015 TEMPO 23008KT
Schedule Frequency

Route Map